Time;durP1;ratioP1;P1;durP2;ratioP2;P2;SDS_P1;SDS_P2;PMS_P1;PMS_P2;Temp;Humidity;BMP_temperature;BMP_pressure;BME280_temperature;BME280_humidity;BME280_pressure;Samples;Min_cycle;Max_cycle;Signal;HPM_P1;HPM_P2
2021/03/06 00:00:09;;;;;;;7.30;4.22;;;;;;;-0.66;88.83;99643.03;1815817;79;21016;-60
2021/03/06 00:02:37;;;;;;;7.22;4.92;;;;;;;-0.64;88.66;99644.75;1780334;78;21122;-60
2021/03/06 00:05:07;;;;;;;5.87;3.85;;;;;;;-0.62;88.67;99653.28;1780128;80;21135;-60
2021/03/06 00:07:36;;;;;;;6.25;4.20;;;;;;;-0.60;88.48;99647.73;1780089;80;21111;-60
2021/03/06 00:10:07;;;;;;;6.17;5.00;;;;;;;-0.58;88.53;99647.75;1780048;80;21122;-60
2021/03/06 00:12:35;;;;;;;6.17;4.80;;;;;;;-0.58;88.45;99649.87;1780217;80;21115;-60
2021/03/06 00:15:05;;;;;;;5.12;4.35;;;;;;;-0.56;88.38;99647.34;1780097;80;21520;-60
2021/03/06 00:17:33;;;;;;;6.42;4.78;;;;;;;-0.56;88.38;99639.25;1780246;80;21467;-60
2021/03/06 00:20:02;;;;;;;7.15;4.55;;;;;;;-0.54;88.20;99642.67;1780065;80;21184;-60
2021/03/06 00:22:30;;;;;;;5.60;3.75;;;;;;;-0.54;88.34;99646.50;1780045;80;21063;-60
2021/03/06 00:24:57;;;;;;;7.25;3.58;;;;;;;-0.53;88.04;99647.36;1780095;80;21107;-60
2021/03/06 00:27:25;;;;;;;4.70;3.20;;;;;;;-0.53;88.10;99644.38;1780084;80;21114;-60
2021/03/06 00:29:53;;;;;;;4.03;2.87;;;;;;;-0.52;87.98;99647.80;1780099;80;21153;-60
2021/03/06 00:32:21;;;;;;;4.62;2.77;;;;;;;-0.53;87.64;99641.83;1780106;80;21436;-60
2021/03/06 00:34:48;;;;;;;3.75;2.35;;;;;;;-0.57;87.26;99646.91;1780080;80;21661;-60
2021/03/06 00:37:16;;;;;;;4.70;2.45;;;;;;;-0.63;87.14;99652.86;1780084;80;21106;-60
2021/03/06 00:39:44;;;;;;;4.17;2.40;;;;;;;-0.66;87.00;99651.97;1780042;80;21150;-60
2021/03/06 00:42:11;;;;;;;4.37;2.05;;;;;;;-0.70;86.91;99650.67;1780099;80;21088;-60
2021/03/06 00:44:42;;;;;;;3.70;2.27;;;;;;;-0.72;86.34;99656.61;1780102;80;21067;-60
2021/03/06 00:47:09;;;;;;;4.87;2.45;;;;;;;-0.77;85.70;99649.33;1779974;80;21055;-60
2021/03/06 00:49:37;;;;;;;3.45;2.45;;;;;;;-0.85;84.85;99648.02;1780062;80;21067;-60
2021/03/06 00:52:06;;;;;;;2.90;1.92;;;;;;;-0.90;84.78;99642.44;1780081;80;21103;-60
2021/03/06 00:54:34;;;;;;;3.12;2.08;;;;;;;-0.95;84.16;99651.33;1780096;80;21126;-60
2021/03/06 00:57:03;;;;;;;4.05;2.00;;;;;;;-1.01;83.31;99651.73;1780037;80;21354;-60
2021/03/06 00:59:31;;;;;;;4.25;2.17;;;;;;;-1.06;83.23;99658.06;1779966;80;21063;-60
2021/03/06 01:01:58;;;;;;;3.50;2.12;;;;;;;-1.09;82.87;99657.62;1779909;78;21050;-60
2021/03/06 01:04:26;;;;;;;3.33;2.00;;;;;;;-1.13;82.65;99657.16;1780083;80;21103;-60
2021/03/06 01:06:54;;;;;;;3.00;1.82;;;;;;;-1.19;82.13;99658.36;1780077;80;21098;-61
2021/03/06 01:09:21;;;;;;;4.80;2.27;;;;;;;-1.21;82.24;99667.73;1780156;80;22332;-61
2021/03/06 01:11:51;;;;;;;4.40;2.15;;;;;;;-1.22;82.20;99667.30;1780021;80;21076;-61
2021/03/06 01:14:19;;;;;;;2.50;1.98;;;;;;;-1.23;81.62;99676.22;1780029;80;21059;-60
2021/03/06 01:16:47;;;;;;;2.67;1.80;;;;;;;-1.25;81.44;99680.45;1780071;80;21138;-61
2021/03/06 01:19:15;;;;;;;3.25;2.00;;;;;;;-1.27;81.30;99682.98;1780053;80;21143;-61
2021/03/06 01:21:43;;;;;;;3.98;2.02;;;;;;;-1.28;81.15;99674.03;1780068;80;21417;-61
2021/03/06 01:24:13;;;;;;;3.67;1.90;;;;;;;-1.30;80.92;99676.98;1776036;80;21075;-61
2021/03/06 01:26:42;;;;;;;2.77;1.72;;;;;;;-1.33;80.83;99682.91;1779987;79;21059;-61
2021/03/06 01:29:10;;;;;;;2.85;1.62;;;;;;;-1.34;80.58;99685.45;1780060;80;21067;-61
2021/03/06 01:31:38;;;;;;;3.20;2.00;;;;;;;-1.38;80.19;99683.28;1780079;80;21048;-62
2021/03/06 01:34:06;;;;;;;3.70;2.33;;;;;;;-1.45;79.78;99691.31;1780037;79;21393;-61
2021/03/06 01:36:34;;;;;;;3.58;2.20;;;;;;;-1.49;79.72;99692.53;1780001;80;21107;-61
2021/03/06 01:39:03;;;;;;;5.28;1.95;;;;;;;-1.55;79.35;99694.59;1779989;79;21059;-62
2021/03/06 01:41:30;;;;;;;5.15;2.25;;;;;;;-1.60;79.56;99689.03;1780048;80;21119;-61
2021/03/06 01:43:58;;;;;;;3.17;1.70;;;;;;;-1.64;79.11;99694.52;1780067;80;21071;-61
2021/03/06 01:46:26;;;;;;;3.08;1.95;;;;;;;-1.66;78.70;99702.56;1780032;79;21362;-61
2021/03/06 01:48:54;;;;;;;2.80;1.90;;;;;;;-1.67;79.30;99706.37;1779953;80;21150;-61
2021/03/06 01:51:21;;;;;;;2.40;1.70;;;;;;;-1.68;78.93;99706.79;1780019;80;21051;-61
2021/03/06 01:53:49;;;;;;;3.50;1.55;;;;;;;-1.73;78.47;99709.70;1779990;80;21086;-61
2021/03/06 01:56:17;;;;;;;4.37;1.72;;;;;;;-1.79;78.36;99707.06;1780006;80;21075;-61
2021/03/06 01:58:45;;;;;;;2.92;1.57;;;;;;;-1.84;78.67;99715.10;1780117;80;21187;-61
2021/03/06 02:01:12;;;;;;;3.95;1.52;;;;;;;-1.88;78.80;99712.93;1779805;78;21285;-61
2021/03/06 02:03:40;;;;;;;4.17;1.52;;;;;;;-1.90;78.61;99723.94;1780095;80;21063;-61
2021/03/06 02:06:08;;;;;;;2.37;1.47;;;;;;;-1.95;78.19;99717.92;1780020;80;21079;-62
2021/03/06 02:08:36;;;;;;;2.42;1.45;;;;;;;-2.00;78.00;99719.58;1780033;80;21103;-61
2021/03/06 02:11:03;;;;;;;2.20;1.40;;;;;;;-2.05;78.10;99718.23;1780031;80;21348;-61
2021/03/06 02:14:10;;;;;;;2.70;1.62;;;;;;;-2.12;78.05;99725.35;1779958;80;21063;-61
2021/03/06 02:16:47;;;;;;;3.12;1.50;;;;;;;-2.18;78.04;99732.91;1779972;80;21043;-61
2021/03/06 02:19:48;;;;;;;3.77;1.45;;;;;;;-2.27;78.23;99740.44;1779828;80;21570;-61
2021/03/06 02:22:43;;;;;;;3.30;1.47;;;;;;;-2.31;78.42;99744.63;1780066;80;21574;-61
2021/03/06 02:25:45;;;;;;;2.92;1.90;;;;;;;-2.39;78.47;99741.52;1778712;80;21327;-61
2021/03/06 02:28:50;;;;;;;4.10;2.72;;;;;;;-2.43;78.70;99745.73;1779577;80;21090;-62
2021/03/06 02:31:17;;;;;;;4.75;2.37;;;;;;;-2.46;78.76;99746.55;1774238;80;21587;-62
2021/03/06 02:34:00;;;;;;;2.20;1.50;;;;;;;-2.50;78.75;99751.14;1780016;80;21071;-61
2021/03/06 02:36:27;;;;;;;3.05;1.92;;;;;;;-2.53;78.80;99754.91;1780071;80;21126;-62
2021/03/06 02:38:57;;;;;;;2.47;2.10;;;;;;;-2.57;78.93;99761.20;1754191;80;21346;-61
2021/03/06 02:41:26;;;;;;;2.62;1.40;;;;;;;-2.60;78.91;99764.59;1780112;80;21158;-61
2021/03/06 02:43:53;;;;;;;1.87;1.15;;;;;;;-2.64;78.98;99769.18;1780155;80;21130;-61
2021/03/06 02:46:24;;;;;;;3.37;1.42;;;;;;;-2.66;78.86;99776.34;1754379;80;21500;-61
2021/03/06 02:48:54;;;;;;;2.30;1.32;;;;;;;-2.68;78.96;99774.19;1780247;80;21027;-61
2021/03/06 02:51:22;;;;;;;2.85;1.20;;;;;;;-2.71;78.67;99783.05;1780185;80;21479;-61
2021/03/06 02:53:50;;;;;;;3.70;1.32;;;;;;;-2.74;78.54;99781.30;1780116;80;21070;-61
2021/03/06 02:56:18;;;;;;;1.80;0.98;;;;;;;-2.77;78.47;99790.16;1780086;80;21066;-61
2021/03/06 02:59:16;;;;;;;3.92;1.35;;;;;;;-2.80;78.33;99801.14;1729921;80;21479;-61
2021/03/06 03:01:52;;;;;;;2.25;1.10;;;;;;;-2.81;78.20;99799.87;1780020;78;21134;-61
2021/03/06 03:04:48;;;;;;;5.10;1.20;;;;;;;-2.88;77.85;99804.40;1780220;80;21192;-61
2021/03/06 03:07:39;;;;;;;4.80;1.60;;;;;;;-2.92;77.86;99805.17;1780122;80;21110;-61
2021/03/06 03:10:11;;;;;;;1.55;1.00;;;;;;;-3.01;77.92;99814.79;1780268;80;21098;-60
2021/03/06 03:12:53;;;;;;;1.22;1.00;;;;;;;-3.09;77.58;99818.01;1780182;80;21448;-61
2021/03/06 03:15:30;;;;;;;2.90;1.07;;;;;;;-3.16;77.33;99813.20;1780223;80;21052;-61
2021/03/06 03:17:58;;;;;;;3.55;0.90;;;;;;;-3.22;77.52;99822.88;1754487;80;23738;-61
2021/03/06 03:20:46;;;;;;;2.33;1.10;;;;;;;-3.27;77.34;99827.42;1780060;80;21552;-60
2021/03/06 03:23:30;;;;;;;3.40;1.00;;;;;;;-3.30;77.45;99827.36;1780183;80;21122;-61
2021/03/06 03:26:00;;;;;;;1.80;1.07;;;;;;;-3.36;77.49;99839.53;1779788;80;21046;-60
2021/03/06 03:28:29;;;;;;;1.60;0.90;;;;;;;-3.41;77.46;99844.10;1754532;80;21051;-61
2021/03/06 03:30:58;;;;;;;3.00;1.10;;;;;;;-3.48;77.37;99840.56;1730144;80;21382;-60
2021/03/06 03:33:26;;;;;;;1.37;0.98;;;;;;;-3.56;77.33;99839.13;1780096;80;21130;-61
2021/03/06 03:35:53;;;;;;;2.08;1.17;;;;;;;-3.61;77.28;99842.42;1780100;80;21586;-61
2021/03/06 03:38:22;;;;;;;3.20;1.25;;;;;;;-3.68;77.23;99846.92;1780130;80;21047;-63
2021/03/06 03:40:50;;;;;;;2.83;1.25;;;;;;;-3.76;77.12;99845.47;1780124;80;21063;-60
2021/03/06 03:43:18;;;;;;;3.40;1.60;;;;;;;-3.85;77.04;99849.95;1780154;80;21348;-61
2021/03/06 03:45:46;;;;;;;2.22;1.30;;;;;;;-3.91;77.17;99852.77;1780145;80;21964;-60
2021/03/06 03:48:14;;;;;;;4.03;1.47;;;;;;;-3.96;77.22;99847.98;1780090;80;21174;-61
2021/03/06 03:50:41;;;;;;;3.05;1.50;;;;;;;-4.01;77.28;99855.53;1780121;80;21237;-61
2021/03/06 03:53:11;;;;;;;3.20;1.27;;;;;;;-4.06;77.14;99860.91;1780150;80;21035;-60
2021/03/06 03:55:40;;;;;;;1.62;0.82;;;;;;;-4.13;77.03;99863.26;1755070;80;21402;-60
2021/03/06 03:58:10;;;;;;;2.22;1.30;;;;;;;-4.23;77.14;99868.14;1780169;80;21554;-60
2021/03/06 04:00:38;;;;;;;3.62;1.30;;;;;;;-4.28;77.10;99870.11;1780099;80;21115;-60
2021/03/06 04:03:08;;;;;;;2.55;2.00;;;;;;;-4.36;76.98;99864.83;1803141;78;21966;-61
2021/03/06 04:05:36;;;;;;;3.05;1.45;;;;;;;-4.45;77.13;99868.44;1815925;79;21080;-61
2021/03/06 04:08:05;;;;;;;4.25;1.22;;;;;;;-4.49;77.26;99872.98;1815892;79;21423;-61
2021/03/06 04:10:32;;;;;;;3.95;1.40;;;;;;;-4.52;77.22;99868.69;1815815;79;21060;-61
2021/03/06 04:13:00;;;;;;;3.70;1.57;;;;;;;-4.53;77.46;99872.45;1815952;79;21444;-61
2021/03/06 04:15:29;;;;;;;1.90;1.15;;;;;;;-4.54;77.35;99871.59;1815807;79;21067;-61
2021/03/06 04:17:58;;;;;;;1.98;1.27;;;;;;;-4.54;77.19;99869.05;1815887;79;21036;-61
2021/03/06 04:20:26;;;;;;;3.17;1.40;;;;;;;-4.56;77.06;99873.23;1815801;79;21390;-62
2021/03/06 04:22:53;;;;;;;2.40;1.40;;;;;;;-4.60;77.05;99878.22;1815779;78;21139;-61
2021/03/06 04:25:22;;;;;;;3.52;1.40;;;;;;;-4.59;77.20;99886.25;1815863;79;21036;-61
2021/03/06 04:27:52;;;;;;;2.35;1.22;;;;;;;-4.59;76.46;99876.09;1815147;79;21047;-62
2021/03/06 04:30:21;;;;;;;2.50;1.67;;;;;;;-4.66;76.15;99876.37;1815850;79;21091;-62
2021/03/06 04:32:49;;;;;;;2.67;1.10;;;;;;;-4.73;76.21;99877.02;1815856;79;21359;-62
2021/03/06 04:35:16;;;;;;;1.60;1.27;;;;;;;-4.74;76.13;99876.98;1815769;79;21112;-62
2021/03/06 04:37:45;;;;;;;1.72;0.90;;;;;;;-4.76;75.88;99883.69;1815814;79;21079;-62
2021/03/06 04:40:14;;;;;;;2.77;0.98;;;;;;;-4.78;75.80;99885.32;1815793;79;21445;-62
2021/03/06 04:42:41;;;;;;;3.30;1.60;;;;;;;-4.77;75.75;99888.31;1815925;79;21583;-62
2021/03/06 04:45:10;;;;;;;3.52;1.50;;;;;;;-4.77;75.61;99895.92;1815819;79;21434;-61
2021/03/06 04:47:43;;;;;;;5.92;2.45;;;;;;;-4.82;75.51;99892.43;1815784;78;21091;-62
2021/03/06 04:50:12;;;;;;;2.27;1.20;;;;;;;-4.82;75.66;99893.70;1815859;79;21016;-61
2021/03/06 04:52:40;;;;;;;2.50;1.27;;;;;;;-4.83;75.59;99900.86;1815814;78;21027;-61
2021/03/06 04:55:10;;;;;;;4.35;1.10;;;;;;;-4.83;75.62;99904.25;1815812;78;21088;-62
2021/03/06 04:57:37;;;;;;;2.52;1.00;;;;;;;-4.87;75.85;99905.84;1815834;79;21298;-61
2021/03/06 05:00:08;;;;;;;2.47;1.07;;;;;;;-4.83;75.77;99906.79;1815712;79;21087;-61
2021/03/06 05:02:36;;;;;;;1.40;0.90;;;;;;;-4.83;75.83;99912.27;1804370;78;21555;-61
2021/03/06 05:05:06;;;;;;;1.57;1.07;;;;;;;-4.80;76.11;99915.76;1780166;80;21154;-61
2021/03/06 05:07:35;;;;;;;2.65;0.95;;;;;;;-4.71;76.13;99924.01;1780096;79;21129;-62
2021/03/06 05:10:05;;;;;;;3.27;1.42;;;;;;;-4.62;76.09;99926.39;1780091;80;21293;-61
2021/03/06 05:12:33;;;;;;;2.47;1.17;;;;;;;-4.53;75.98;99930.83;1780022;80;21092;-61
2021/03/06 05:15:02;;;;;;;3.08;1.50;;;;;;;-4.45;75.67;99941.20;1780125;80;21075;-61
2021/03/06 05:17:30;;;;;;;3.02;1.22;;;;;;;-4.38;75.58;99943.91;1780058;80;21043;-61
2021/03/06 05:19:59;;;;;;;3.65;1.20;;;;;;;-4.27;75.45;99948.02;1780002;80;21083;-61
2021/03/06 05:22:27;;;;;;;2.77;1.35;;;;;;;-4.19;75.15;99952.45;1780048;80;21380;-61
2021/03/06 05:24:55;;;;;;;3.62;1.25;;;;;;;-4.09;74.85;99963.71;1779998;80;21130;-61
2021/03/06 05:27:25;;;;;;;2.90;1.50;;;;;;;-4.01;74.30;99968.99;1778836;80;21095;-60
2021/03/06 05:29:54;;;;;;;2.72;1.52;;;;;;;-4.02;74.04;99971.95;1780141;79;21149;-60
2021/03/06 05:32:22;;;;;;;2.12;1.32;;;;;;;-3.94;74.08;99975.92;1780037;80;21484;-61
2021/03/06 05:34:50;;;;;;;2.35;1.45;;;;;;;-3.85;73.71;99983.38;1780044;80;21578;-60
2021/03/06 05:37:17;;;;;;;4.92;2.72;;;;;;;-3.80;72.69;99987.72;1780009;80;21158;-60
2021/03/06 05:39:45;;;;;;;3.12;1.60;;;;;;;-3.82;72.81;99992.76;1780021;80;21154;-60
2021/03/06 05:42:12;;;;;;;2.92;1.47;;;;;;;-3.83;72.40;99997.39;1780013;80;21047;-60
2021/03/06 05:44:42;;;;;;;2.17;1.42;;;;;;;-3.89;72.52;99993.01;1754449;80;21047;-60
2021/03/06 05:47:12;;;;;;;2.45;1.40;;;;;;;-3.85;72.34;99999.89;1780096;79;21369;-61
2021/03/06 05:49:40;;;;;;;2.52;1.20;;;;;;;-3.85;72.53;100001.16;1780095;80;21476;-61
2021/03/06 05:52:08;;;;;;;2.17;0.85;;;;;;;-3.79;72.43;100003.38;1780022;80;21111;-61
2021/03/06 05:54:37;;;;;;;2.98;1.07;;;;;;;-3.79;72.02;100010.59;1780026;80;21142;-60
2021/03/06 05:57:05;;;;;;;1.92;1.17;;;;;;;-3.76;71.84;100017.44;1780042;80;21133;-60
2021/03/06 05:59:32;;;;;;;2.05;1.20;;;;;;;-3.77;71.83;100019.53;1780023;80;21360;-61
2021/03/06 06:02:00;;;;;;;5.00;1.57;;;;;;;-3.77;71.41;100020.39;1754112;80;21495;-61
2021/03/06 06:04:29;;;;;;;2.12;1.20;;;;;;;-3.76;71.39;100025.92;1779931;78;21063;-61
2021/03/06 06:06:57;;;;;;;2.10;1.02;;;;;;;-3.73;71.02;100032.36;1780044;80;21527;-61
2021/03/06 06:09:25;;;;;;;2.70;1.45;;;;;;;-3.70;70.71;100034.98;1780136;80;21111;-61
2021/03/06 06:11:53;;;;;;;3.02;1.47;;;;;;;-3.67;70.73;100035.06;1780028;79;21246;-61
2021/03/06 06:14:23;;;;;;;3.90;1.45;;;;;;;-3.60;70.25;100039.48;1777136;80;21130;-61
2021/03/06 06:16:52;;;;;;;1.67;1.10;;;;;;;-3.53;69.44;100036.24;1780198;80;21495;-61
2021/03/06 06:19:20;;;;;;;1.95;1.30;;;;;;;-3.48;69.94;100045.27;1780175;80;21059;-62
2021/03/06 06:21:49;;;;;;;3.00;1.42;;;;;;;-3.40;69.99;100047.59;1780166;80;21051;-63
2021/03/06 06:24:22;;;;;;;3.05;1.62;;;;;;;-3.27;70.07;100057.21;1780303;80;22078;-61
2021/03/06 06:26:56;;;;;;;10.00;4.92;;;;;;;-3.15;69.60;100066.38;1780117;80;21079;-62
2021/03/06 06:29:45;;;;;;;3.30;2.37;;;;;;;-3.01;69.46;100067.98;1780227;80;21059;-61
2021/03/06 06:32:15;;;;;;;3.17;1.60;;;;;;;-2.91;68.53;100064.80;1780214;80;21495;-62
2021/03/06 06:34:58;;;;;;;4.75;2.00;;;;;;;-2.84;67.69;100075.58;1780224;80;21095;-62
2021/03/06 06:37:27;;;;;;;2.47;1.37;;;;;;;-2.81;67.69;100070.56;1780296;80;22104;-62
2021/03/06 06:39:55;;;;;;;4.10;1.50;;;;;;;-2.72;67.25;100077.52;1780126;80;21114;-62
2021/03/06 06:42:31;;;;;;;2.27;1.40;;;;;;;-2.65;67.35;100074.70;1780118;80;21055;-61
2021/03/06 06:44:59;;;;;;;3.58;1.37;;;;;;;-2.60;66.41;100081.61;1780264;80;21047;-62
2021/03/06 06:47:37;;;;;;;3.05;1.30;;;;;;;-2.55;66.26;100089.32;1780163;80;21126;-62
2021/03/06 06:50:08;;;;;;;4.20;2.12;;;;;;;-2.50;65.98;100086.47;1779924;80;21219;-62
2021/03/06 06:52:43;;;;;;;6.05;3.30;;;;;;;-2.43;66.52;100095.97;1780098;80;21114;-62
2021/03/06 06:55:13;;;;;;;6.95;2.77;;;;;;;-2.38;66.44;100101.98;1780268;80;21460;-61
2021/03/06 06:57:48;;;;;;;3.15;2.72;;;;;;;-2.30;66.48;100102.16;1779997;80;21055;-62
2021/03/06 07:00:18;;;;;;;2.30;1.45;;;;;;;-2.26;65.90;100110.31;1780179;80;21559;-62
2021/03/06 07:02:54;;;;;;;5.30;2.52;;;;;;;-2.25;64.94;100101.84;1783967;78;21368;-62
2021/03/06 07:05:35;;;;;;;4.42;2.35;;;;;;;-2.25;65.09;100106.52;1815860;78;21131;-62
2021/03/06 07:08:23;;;;;;;6.45;2.70;;;;;;;-2.21;65.24;100112.13;1816026;79;21438;-63
2021/03/06 07:10:51;;;;;;;13.58;6.95;;;;;;;-2.12;65.90;100110.16;1810854;79;21052;-62
2021/03/06 07:13:19;;;;;;;17.98;9.55;;;;;;;-2.00;66.34;100107.01;1815904;79;21020;-62
2021/03/06 07:15:53;;;;;;;13.55;8.53;;;;;;;-1.90;66.57;100106.33;1815884;79;21245;-62
2021/03/06 07:18:21;;;;;;;10.85;6.40;;;;;;;-1.81;65.71;100115.03;1815949;78;21461;-63
2021/03/06 07:20:51;;;;;;;6.65;4.85;;;;;;;-1.78;65.12;100112.50;1815799;79;21016;-63
2021/03/06 07:23:24;;;;;;;6.10;4.08;;;;;;;-1.78;64.21;100111.23;1815889;79;21060;-62
2021/03/06 07:25:53;;;;;;;5.92;4.15;;;;;;;-1.80;64.07;100106.97;1816108;79;21417;-61
2021/03/06 07:28:24;;;;;;;8.58;4.97;;;;;;;-1.82;64.09;100106.94;1815942;79;21349;-61
2021/03/06 07:30:54;;;;;;;9.65;4.58;;;;;;;-1.87;64.34;100107.25;1815904;79;21119;-61
2021/03/06 07:33:21;;;;;;;7.53;4.42;;;;;;;-1.89;64.33;100108.91;1762283;79;21440;-61
2021/03/06 07:35:50;;;;;;;8.25;4.17;;;;;;;-1.86;64.14;100113.22;1815878;79;21021;-61
2021/03/06 07:38:19;;;;;;;5.45;3.27;;;;;;;-1.81;63.67;100120.55;1815985;79;21461;-61
2021/03/06 07:41:02;;;;;;;5.87;3.22;;;;;;;-1.77;63.20;100115.91;1815841;79;22444;-63
2021/03/06 07:43:35;;;;;;;9.65;6.42;;;;;;;-1.79;63.52;100116.30;1815818;78;21052;-62
2021/03/06 07:46:03;;;;;;;16.32;11.00;;;;;;;-1.67;64.08;100119.51;1815849;79;21092;-62
2021/03/06 07:48:42;;;;;;;9.68;6.05;;;;;;;-1.61;63.78;100118.34;1815854;79;21051;-62
2021/03/06 07:51:10;;;;;;;4.78;2.50;;;;;;;-1.57;64.22;100119.68;1815917;78;21025;-63
2021/03/06 07:53:38;;;;;;;5.53;2.72;;;;;;;-1.45;64.32;100126.30;1786713;79;21996;-61
2021/03/06 07:56:09;;;;;;;6.40;2.85;;;;;;;-1.33;64.27;100127.31;1815701;79;21139;-62
2021/03/06 07:58:55;;;;;;;5.92;2.70;;;;;;;-1.26;64.18;100134.25;1815851;78;21580;-63
2021/03/06 08:01:28;;;;;;;5.05;2.65;;;;;;;-1.18;63.72;100133.52;1815997;79;21453;-62
2021/03/06 08:03:58;;;;;;;4.83;2.50;;;;;;;-1.12;63.79;100126.39;1815739;78;21099;-63
2021/03/06 08:06:27;;;;;;;4.45;2.12;;;;;;;-1.07;63.96;100128.19;1815851;79;21360;-63
2021/03/06 08:09:01;;;;;;;3.17;2.00;;;;;;;-1.03;63.65;100129.52;1815746;79;21099;-63
2021/03/06 08:11:38;;;;;;;2.77;2.00;;;;;;;-1.01;63.69;100127.85;1815547;79;21040;-63
2021/03/06 08:14:32;;;;;;;4.00;2.87;;;;;;;-0.97;63.42;100134.70;1815870;78;21096;-63
2021/03/06 08:17:00;;;;;;;4.15;2.60;;;;;;;-0.93;62.87;100136.05;1815819;78;21040;-63
2021/03/06 08:19:28;;;;;;;6.45;3.70;;;;;;;-0.93;62.80;100132.64;1786998;79;21326;-62
2021/03/06 08:21:57;;;;;;;8.18;4.67;;;;;;;-0.93;62.33;100136.47;1815734;79;21096;-62
2021/03/06 08:24:27;;;;;;;9.18;3.30;;;;;;;-0.92;61.86;100137.77;1815806;79;21084;-62
2021/03/06 08:27:09;;;;;;;7.17;3.70;;;;;;;-0.84;60.18;100143.87;1815883;79;21119;-62
2021/03/06 08:29:47;;;;;;;5.62;2.92;;;;;;;-0.80;59.85;100144.33;1814380;79;21117;-62
2021/03/06 08:32:33;;;;;;;7.80;4.22;;;;;;;-0.77;58.29;100146.08;1815835;79;21200;-63
2021/03/06 08:35:20;;;;;;;6.42;3.72;;;;;;;-0.80;58.90;100144.33;1790825;79;21036;-63
2021/03/06 08:37:49;;;;;;;11.03;5.37;;;;;;;-0.80;58.75;100146.88;1815775;79;21123;-65
2021/03/06 08:40:20;;;;;;;10.18;5.87;;;;;;;-0.76;58.82;100150.34;1815794;79;21128;-63
2021/03/06 08:42:53;;;;;;;10.95;5.70;;;;;;;-0.70;58.17;100152.59;1815795;79;21088;-62
2021/03/06 08:45:29;;;;;;;5.92;4.42;;;;;;;-0.66;58.57;100149.66;1815939;79;21427;-62
2021/03/06 08:48:03;;;;;;;8.40;5.40;;;;;;;-0.59;57.87;100148.89;1815806;78;21075;-62
2021/03/06 08:50:35;;;;;;;12.43;6.42;;;;;;;-0.53;58.00;100154.09;1815775;79;21029;-62
2021/03/06 08:53:12;;;;;;;7.53;4.17;;;;;;;-0.48;57.45;100156.30;1815800;79;21044;-62
2021/03/06 08:55:41;;;;;;;6.42;3.20;;;;;;;-0.42;57.19;100157.67;1815307;79;21119;-62
2021/03/06 08:58:13;;;;;;;2.08;1.40;;;;;;;-0.29;58.43;100162.94;1815789;79;21359;-62
2021/03/06 09:00:50;;;;;;;3.77;2.20;;;;;;;-0.19;55.11;100158.38;1815970;79;21060;-62
2021/03/06 09:06:04;;;;;;;5.00;3.35;;;;;;;-0.02;55.98;100165.86;1873613;75;22714;-61
2021/03/06 09:08:31;;;;;;;8.48;5.20;;;;;;;-0.02;55.25;100163.30;1841598;78;21048;-63
2021/03/06 09:11:00;;;;;;;4.30;2.52;;;;;;;0.02;56.00;100166.73;1841580;77;21190;-63
2021/03/06 09:13:35;;;;;;;3.65;2.08;;;;;;;0.10;55.58;100167.27;1841459;77;21053;-62
2021/03/06 09:16:04;;;;;;;6.92;4.25;;;;;;;0.14;55.16;100166.47;1840471;78;21046;-62
2021/03/06 09:18:34;;;;;;;2.65;1.90;;;;;;;0.17;54.09;100174.61;1841811;78;22115;-62
2021/03/06 09:21:13;;;;;;;3.08;1.60;;;;;;;0.20;52.69;100169.53;1841616;77;20926;-62
2021/03/06 09:23:43;;;;;;;4.65;2.05;;;;;;;0.17;52.61;100174.19;1812969;78;21381;-62
2021/03/06 09:26:23;;;;;;;2.77;1.30;;;;;;;0.20;52.43;100172.09;1841489;78;21215;-62
2021/03/06 09:28:53;;;;;;;2.50;1.15;;;;;;;0.17;50.43;100172.91;1841577;78;21474;-62
2021/03/06 09:31:27;;;;;;;2.87;1.40;;;;;;;0.15;51.31;100171.17;1841666;77;21477;-62
2021/03/06 09:33:56;;;;;;;2.30;1.55;;;;;;;0.19;51.03;100169.95;1841592;78;21193;-62
2021/03/06 09:36:30;;;;;;;3.22;1.77;;;;;;;0.23;50.13;100174.23;1841575;77;21533;-62
2021/03/06 09:39:02;;;;;;;3.67;1.70;;;;;;;0.28;50.01;100172.59;1841505;78;21132;-62
2021/03/06 09:41:38;;;;;;;3.00;1.87;;;;;;;0.31;50.70;100175.61;1841546;78;21050;-64
2021/03/06 09:44:07;;;;;;;2.67;1.60;;;;;;;0.36;50.45;100175.66;1841505;78;21121;-62
2021/03/06 09:46:37;;;;;;;4.92;3.22;;;;;;;0.42;50.16;100168.89;1841505;78;21172;-63
2021/03/06 09:49:10;;;;;;;5.22;2.67;;;;;;;0.51;51.59;100182.22;1841504;77;21313;-62
2021/03/06 09:51:46;;;;;;;4.67;3.17;;;;;;;0.60;50.91;100178.48;1841569;77;21542;-62
2021/03/06 09:54:18;;;;;;;5.15;3.33;;;;;;;0.68;51.72;100174.28;1841546;77;20935;-62
2021/03/06 09:56:48;;;;;;;5.15;3.12;;;;;;;0.77;50.67;100176.08;1820965;78;21557;-63
2021/03/06 09:59:15;;;;;;;6.10;3.52;;;;;;;0.78;51.43;100179.08;1808427;78;21121;-63
2021/03/06 10:01:44;;;;;;;6.10;3.40;;;;;;;0.76;52.20;100179.48;1808454;79;23505;-63
2021/03/06 10:04:21;;;;;;;4.03;2.52;;;;;;;0.75;52.89;100177.77;1808194;79;21065;-63
2021/03/06 10:06:53;;;;;;;5.78;3.87;;;;;;;0.72;52.89;100181.16;1808453;79;21109;-63
2021/03/06 10:09:22;;;;;;;6.60;4.70;;;;;;;0.57;52.16;100189.97;1780662;79;21510;-63
2021/03/06 10:11:54;;;;;;;8.70;4.90;;;;;;;0.57;52.16;100189.97;1779632;79;21058;-63
2021/03/06 10:14:25;;;;;;;3.95;2.27;;;;;;;0.47;52.07;100196.68;1808453;78;22121;-62
2021/03/06 10:16:57;;;;;;;8.05;4.75;;;;;;;0.45;50.73;100196.22;1808000;79;21509;-63
2021/03/06 10:19:28;;;;;;;6.78;4.33;;;;;;;0.46;51.85;100197.52;1808015;79;21141;-62
2021/03/06 10:22:09;;;;;;;6.12;4.15;;;;;;;0.49;52.30;100197.56;1807911;79;21557;-62
2021/03/06 10:25:02;;;;;;;4.10;2.87;;;;;;;0.49;51.48;100201.81;1807907;79;21054;-62
2021/03/06 10:27:46;;;;;;;4.08;2.60;;;;;;;0.46;52.48;100205.20;1807894;79;21434;-62
2021/03/06 10:30:33;;;;;;;4.50;2.85;;;;;;;0.51;52.95;100205.25;1807862;79;21608;-63
2021/03/06 10:33:02;;;;;;;7.22;4.30;;;;;;;0.55;52.16;100205.31;1807886;79;21065;-63
2021/03/06 10:35:51;;;;;;;8.08;3.98;;;;;;;0.56;51.78;100192.95;1807863;79;21089;-63
2021/03/06 10:38:27;;;;;;;3.62;2.12;;;;;;;0.56;52.55;100202.33;1807904;79;21065;-63
2021/03/06 10:41:02;;;;;;;3.08;2.40;;;;;;;0.58;50.23;100193.83;1807824;78;21483;-63
2021/03/06 10:43:40;;;;;;;5.30;2.50;;;;;;;0.56;50.95;100195.93;1807815;79;21081;-64
2021/03/06 10:46:21;;;;;;;6.15;3.10;;;;;;;0.59;51.87;100194.69;1807903;79;21116;-62
2021/03/06 10:48:57;;;;;;;6.70;3.08;;;;;;;0.66;52.54;100197.30;1807859;79;21070;-64
2021/03/06 10:51:45;;;;;;;6.42;2.17;;;;;;;0.71;52.22;100188.81;1807831;79;21490;-64
2021/03/06 10:54:15;;;;;;;3.67;1.32;;;;;;;0.70;48.88;100193.08;1784167;79;21367;-62
2021/03/06 10:56:45;;;;;;;5.20;3.15;;;;;;;0.64;48.52;100190.03;1807740;78;21089;-62
2021/03/06 10:59:14;;;;;;;5.42;3.20;;;;;;;0.67;50.34;100193.05;1807837;79;20961;-63
2021/03/06 11:01:48;;;;;;;4.58;2.92;;;;;;;0.73;51.09;100188.41;1807810;78;21490;-63
2021/03/06 11:04:30;;;;;;;3.55;2.17;;;;;;;0.77;51.09;100188.47;1807834;79;21198;-63
2021/03/06 11:07:00;;;;;;;5.10;3.73;;;;;;;0.74;50.54;100193.97;1808224;78;22269;-62
2021/03/06 11:09:32;;;;;;;2.85;1.95;;;;;;;0.73;51.05;100188.41;1807781;79;21467;-63
2021/03/06 11:12:42;;;;;;;4.28;2.60;;;;;;;0.74;49.90;100188.43;1807820;78;21066;-62
2021/03/06 11:15:15;;;;;;;9.13;5.62;;;;;;;0.72;49.13;100187.97;1716079;83;21075;-63
2021/03/06 11:17:51;;;;;;;3.58;2.58;;;;;;;0.64;48.27;100186.19;1726438;83;21175;-63
2021/03/06 11:20:19;;;;;;;6.15;3.25;;;;;;;0.58;46.66;100189.13;1726488;83;21381;-63
2021/03/06 11:22:47;;;;;;;8.90;3.95;;;;;;;0.54;47.21;100183.12;1726322;83;21127;-63
2021/03/06 11:25:16;;;;;;;3.85;2.40;;;;;;;0.57;47.80;100175.89;1726361;83;21134;-63
2021/03/06 11:27:57;;;;;;;3.37;2.00;;;;;;;0.61;46.67;100172.49;1726332;83;21158;-61
2021/03/06 11:30:37;;;;;;;2.83;1.85;;;;;;;0.60;47.18;100173.37;1726408;83;21142;-62
2021/03/06 11:33:08;;;;;;;5.58;2.72;;;;;;;0.60;46.04;100169.53;1726383;83;21373;-62
2021/03/06 11:35:37;;;;;;;6.05;2.27;;;;;;;0.54;46.82;100169.04;1726355;82;21579;-63
2021/03/06 11:38:09;;;;;;;2.95;1.57;;;;;;;0.54;45.28;100174.16;1726435;83;21158;-62
2021/03/06 11:40:41;;;;;;;3.75;2.22;;;;;;;0.53;45.91;100168.59;1726600;83;21083;-62
2021/03/06 11:43:08;;;;;;;2.15;1.50;;;;;;;0.57;44.54;100169.49;1726408;83;21463;-63
2021/03/06 11:45:37;;;;;;;3.77;1.92;;;;;;;0.56;43.73;100170.34;1726323;83;21382;-63
2021/03/06 11:48:07;;;;;;;3.95;2.40;;;;;;;0.54;45.17;100167.76;1726291;83;21141;-62
2021/03/06 11:50:42;;;;;;;2.92;1.87;;;;;;;0.59;45.95;100166.11;1726388;83;21123;-62
2021/03/06 11:53:09;;;;;;;3.85;2.20;;;;;;;0.65;45.32;100163.59;1726368;83;21079;-63
2021/03/06 11:55:38;;;;;;;4.17;2.25;;;;;;;0.66;45.83;100168.28;1726126;81;21322;-63